createdAt,value
2022-09-09T00:00:08.857Z,18.73
2022-09-09T00:01:08.856Z,18.65
2022-09-09T00:02:08.968Z,18.70
2022-09-09T00:03:08.986Z,18.58
2022-09-09T00:04:08.866Z,18.62
2022-09-09T00:05:08.871Z,18.60
2022-09-09T00:06:08.863Z,18.55
2022-09-09T00:07:08.891Z,18.55
2022-09-09T00:08:08.869Z,18.65
2022-09-09T00:09:08.865Z,18.69
2022-09-09T00:10:08.862Z,18.62
2022-09-09T00:11:08.863Z,18.58
2022-09-09T00:12:08.863Z,18.57
2022-09-09T00:13:08.871Z,18.45
2022-09-09T00:14:08.871Z,18.52
2022-09-09T00:15:08.867Z,18.52
2022-09-09T00:16:08.946Z,18.55
2022-09-09T00:17:08.866Z,18.51
2022-09-09T00:18:08.869Z,18.41
2022-09-09T00:19:08.865Z,18.42
2022-09-09T00:20:08.868Z,18.50
2022-09-09T00:21:08.867Z,18.51
2022-09-09T00:22:08.873Z,18.48
2022-09-09T00:23:08.887Z,18.41
2022-09-09T00:24:08.871Z,18.45
2022-09-09T00:25:08.868Z,18.41
2022-09-09T00:26:08.868Z,18.39
2022-09-09T00:27:08.867Z,18.44
2022-09-09T00:28:08.870Z,18.45
2022-09-09T00:29:08.877Z,18.47
2022-09-09T00:30:08.872Z,18.41
2022-09-09T00:31:08.954Z,18.52
2022-09-09T00:32:08.871Z,18.44
2022-09-09T00:33:13.293Z,18.45
2022-09-09T00:34:08.873Z,18.41
2022-09-09T00:35:08.874Z,18.47
2022-09-09T00:36:08.875Z,18.47
2022-09-09T00:37:08.872Z,18.55
2022-09-09T00:38:08.875Z,18.41
2022-09-09T00:39:08.901Z,18.47
2022-09-09T00:40:08.993Z,18.50
2022-09-09T00:41:08.878Z,18.52
2022-09-09T00:42:08.878Z,18.44
2022-09-09T00:43:08.874Z,18.51
2022-09-09T00:44:08.878Z,18.47
2022-09-09T00:45:08.879Z,18.44
2022-09-09T00:46:08.906Z,18.42
2022-09-09T00:47:08.880Z,18.44
2022-09-09T00:48:08.875Z,18.42
2022-09-09T00:49:08.876Z,18.42
2022-09-09T00:50:08.883Z,18.44
2022-09-09T00:51:08.874Z,18.45
2022-09-09T00:52:08.878Z,18.42
2022-09-09T00:53:08.881Z,18.39
2022-09-09T00:54:08.882Z,18.37
2022-09-09T00:55:08.904Z,18.33
2022-09-09T00:56:08.880Z,18.42
2022-09-09T00:57:08.880Z,18.44
2022-09-09T00:58:08.890Z,18.30
2022-09-09T00:59:08.880Z,18.35
2022-09-09T01:00:08.879Z,18.36
2022-09-09T01:01:08.964Z,18.29
2022-09-09T01:02:08.919Z,18.23
2022-09-09T01:03:08.879Z,18.35
2022-09-09T01:04:08.879Z,18.30
2022-09-09T01:05:08.880Z,18.29
2022-09-09T01:06:08.884Z,18.35
2022-09-09T01:07:08.882Z,18.26
2022-09-09T01:08:08.880Z,18.23
2022-09-09T01:09:08.888Z,18.23
2022-09-09T01:10:08.885Z,18.26
2022-09-09T01:11:08.903Z,18.27
2022-09-09T01:12:08.886Z,18.27
2022-09-09T01:13:08.885Z,18.27
2022-09-09T01:14:08.886Z,18.27
2022-09-09T01:15:08.887Z,18.14
2022-09-09T01:16:08.888Z,18.12
2022-09-09T01:17:08.886Z,18.17
2022-09-09T01:18:08.883Z,18.15
2022-09-09T01:19:08.887Z,18.21
2022-09-09T01:20:08.884Z,18.15
2022-09-09T01:21:08.887Z,18.18
2022-09-09T01:22:08.889Z,18.17
2022-09-09T01:23:08.886Z,18.25
2022-09-09T01:24:08.890Z,18.14
2022-09-09T01:25:08.885Z,18.15
2022-09-09T01:26:08.890Z,18.07
2022-09-09T01:27:08.911Z,18.12
2022-09-09T01:28:08.886Z,18.15
2022-09-09T01:29:08.891Z,18.14
2022-09-09T01:30:08.889Z,18.07
2022-09-09T01:31:08.953Z,18.12
2022-09-09T01:32:08.892Z,18.11
2022-09-09T01:33:08.891Z,18.08
2022-09-09T01:34:08.889Z,18.08
2022-09-09T01:35:08.890Z,17.97
2022-09-09T01:36:08.895Z,18.10
2022-09-09T01:37:08.897Z,18.02
2022-09-09T01:38:08.891Z,18.08
2022-09-09T01:39:08.898Z,18.17
2022-09-09T01:40:08.942Z,17.97
2022-09-09T01:41:08.896Z,18.07
2022-09-09T01:42:08.893Z,18.05
2022-09-09T01:43:08.913Z,18.12
2022-09-09T01:44:08.892Z,18.07
2022-09-09T01:45:08.903Z,18.11
2022-09-09T01:46:08.930Z,18.17
2022-09-09T01:47:08.895Z,18.12
2022-09-09T01:48:08.900Z,18.12
2022-09-09T01:49:08.894Z,18.11
2022-09-09T01:50:08.898Z,18.10
2022-09-09T01:51:08.900Z,18.08
2022-09-09T01:52:08.894Z,18.00
2022-09-09T01:53:08.893Z,18.10
2022-09-09T01:54:08.897Z,18.00
2022-09-09T01:55:08.898Z,17.95
2022-09-09T01:56:08.901Z,17.97
2022-09-09T01:57:08.901Z,17.92
2022-09-09T01:58:08.901Z,17.97
2022-09-09T01:59:08.920Z,18.08
2022-09-09T02:00:08.906Z,18.00
2022-09-09T02:01:08.942Z,18.03
2022-09-09T02:02:08.942Z,17.96
2022-09-09T02:03:08.901Z,17.96
2022-09-09T02:04:08.898Z,17.92
2022-09-09T02:05:08.900Z,18.00
2022-09-09T02:06:08.901Z,17.96
2022-09-09T02:07:09.227Z,18.08
2022-09-09T02:08:08.905Z,18.10
2022-09-09T02:09:08.918Z,18.08
2022-09-09T02:10:08.900Z,18.07
2022-09-09T02:11:08.901Z,18.00
2022-09-09T02:12:08.902Z,17.97
2022-09-09T02:13:08.902Z,18.02
2022-09-09T02:14:08.908Z,17.96
2022-09-09T02:15:08.954Z,17.96
2022-09-09T02:16:08.899Z,17.93
2022-09-09T02:17:08.901Z,17.96
2022-09-09T02:18:08.902Z,17.96
2022-09-09T02:19:08.905Z,17.92
2022-09-09T02:20:08.908Z,17.96
2022-09-09T02:21:08.902Z,17.99
2022-09-09T02:22:08.907Z,17.97
2022-09-09T02:23:08.959Z,17.99
2022-09-09T02:24:08.904Z,17.97
2022-09-09T02:25:08.907Z,17.92
2022-09-09T02:26:08.908Z,17.97
2022-09-09T02:27:09.007Z,17.90
2022-09-09T02:28:08.905Z,17.96
2022-09-09T02:29:08.907Z,17.96
2022-09-09T02:30:08.907Z,17.93
2022-09-09T02:31:08.972Z,17.90
2022-09-09T02:32:08.906Z,17.96
2022-09-09T02:33:08.906Z,17.84
2022-09-09T02:35:08.907Z,17.79
2022-09-09T02:36:08.905Z,17.79
2022-09-09T02:37:08.906Z,17.84
2022-09-09T02:38:08.911Z,17.78
2022-09-09T02:39:08.906Z,17.86
2022-09-09T02:40:09.026Z,17.84
2022-09-09T02:41:08.906Z,17.70
2022-09-09T02:42:08.915Z,17.86
2022-09-09T02:43:08.917Z,17.86
2022-09-09T02:44:08.913Z,17.78
2022-09-09T02:45:08.914Z,17.75
2022-09-09T02:46:09.021Z,17.74
2022-09-09T02:47:08.931Z,17.77
2022-09-09T02:48:08.910Z,17.75
2022-09-09T02:49:08.910Z,17.71
2022-09-09T02:50:08.913Z,17.70
2022-09-09T02:51:08.912Z,17.66
2022-09-09T02:52:08.914Z,17.72
2022-09-09T02:53:08.914Z,17.70
2022-09-09T02:54:08.912Z,17.68
2022-09-09T02:55:08.915Z,17.71
2022-09-09T02:56:08.911Z,17.66
2022-09-09T02:57:08.912Z,17.72
2022-09-09T02:58:08.916Z,17.71
2022-09-09T02:59:08.912Z,17.74
2022-09-09T03:00:08.913Z,17.78
2022-09-09T03:01:08.997Z,17.74
2022-09-09T03:02:08.987Z,17.71
2022-09-09T03:03:08.934Z,17.79
2022-09-09T03:04:08.921Z,17.68
2022-09-09T03:05:08.914Z,17.81
2022-09-09T03:06:08.913Z,17.82
2022-09-09T03:07:08.914Z,17.82
2022-09-09T03:08:08.914Z,17.84
2022-09-09T03:09:08.916Z,17.79
2022-09-09T03:10:08.914Z,17.78
2022-09-09T03:11:08.915Z,17.82
2022-09-09T03:12:08.915Z,17.82
2022-09-09T03:13:08.922Z,17.71
2022-09-09T03:14:08.915Z,17.74
2022-09-09T03:15:08.920Z,17.71
2022-09-09T03:16:08.964Z,17.74
2022-09-09T03:17:08.915Z,17.66
2022-09-09T03:18:08.916Z,17.71
2022-09-09T03:19:08.936Z,17.72
2022-09-09T03:20:08.926Z,17.74
2022-09-09T03:21:08.920Z,17.71
2022-09-09T03:22:08.921Z,17.79
2022-09-09T03:23:12.431Z,17.87
2022-09-09T03:24:08.919Z,17.78
2022-09-09T03:25:08.919Z,17.71
2022-09-09T03:26:08.920Z,17.82
2022-09-09T03:27:08.917Z,17.74
2022-09-09T03:28:08.917Z,17.75
2022-09-09T03:29:08.919Z,17.68
2022-09-09T03:30:08.921Z,17.77
2022-09-09T03:31:08.921Z,17.68
2022-09-09T03:32:09.042Z,17.66
2022-09-09T03:33:08.920Z,17.66
2022-09-09T03:34:08.923Z,17.59
2022-09-09T03:35:08.945Z,17.59
2022-09-09T03:36:08.920Z,17.66
2022-09-09T03:37:08.920Z,17.58
2022-09-09T03:38:08.922Z,17.68
2022-09-09T03:39:08.923Z,17.63
2022-09-09T03:40:08.973Z,17.54
2022-09-09T03:41:08.991Z,17.56
2022-09-09T03:42:08.919Z,17.54
2022-09-09T03:43:08.924Z,17.62
2022-09-09T03:44:08.922Z,17.62
2022-09-09T03:45:08.919Z,17.54
2022-09-09T03:46:08.996Z,17.54
2022-09-09T03:47:08.925Z,17.52
2022-09-09T03:48:08.921Z,17.46
2022-09-09T03:49:08.922Z,17.56
2022-09-09T03:50:08.929Z,17.44
2022-09-09T03:51:08.943Z,17.54
2022-09-09T03:52:08.925Z,17.52
2022-09-09T03:53:08.927Z,17.54
2022-09-09T03:54:08.925Z,17.48
2022-09-09T03:55:08.920Z,17.54
2022-09-09T03:56:08.926Z,17.52
2022-09-09T03:57:08.924Z,17.52
2022-09-09T03:58:08.928Z,17.43
2022-09-09T03:59:08.921Z,17.38
2022-09-09T04:00:08.923Z,17.33
2022-09-09T04:01:08.959Z,17.38
2022-09-09T04:02:08.980Z,17.38
2022-09-09T04:03:08.926Z,17.40
2022-09-09T04:04:08.927Z,17.40
2022-09-09T04:05:08.929Z,17.41
2022-09-09T04:06:08.929Z,17.36
2022-09-09T04:07:08.951Z,17.44
2022-09-09T04:08:08.928Z,17.41
2022-09-09T04:09:08.923Z,17.38
2022-09-09T04:10:08.927Z,17.38
2022-09-09T04:11:08.929Z,17.44
2022-09-09T04:12:08.926Z,17.30
2022-09-09T04:13:08.931Z,17.41
2022-09-09T04:14:08.933Z,17.41
2022-09-09T04:15:08.940Z,17.33
2022-09-09T04:16:09.004Z,17.34
2022-09-09T04:17:09.029Z,17.38
2022-09-09T04:18:08.932Z,17.40
2022-09-09T04:19:08.941Z,17.33
2022-09-09T04:20:08.925Z,17.36
2022-09-09T04:21:08.936Z,17.36
2022-09-09T04:22:08.933Z,17.22
2022-09-09T04:23:08.953Z,17.31
2022-09-09T04:24:08.928Z,17.31
2022-09-09T04:25:08.929Z,17.19
2022-09-09T04:26:08.931Z,17.36
2022-09-09T04:27:08.930Z,17.28
2022-09-09T04:28:08.934Z,17.21
2022-09-09T04:29:08.929Z,17.19
2022-09-09T04:30:08.930Z,17.33
2022-09-09T04:31:08.927Z,17.16
2022-09-09T04:32:08.933Z,17.15
2022-09-09T04:33:08.928Z,17.26
2022-09-09T04:34:08.933Z,17.31
2022-09-09T04:35:08.936Z,17.33
2022-09-09T04:36:08.933Z,17.31
2022-09-09T04:37:08.934Z,17.31
2022-09-09T04:38:08.936Z,17.31
2022-09-09T04:39:08.953Z,17.37
2022-09-09T04:40:09.009Z,17.31
2022-09-09T04:41:08.934Z,17.30
2022-09-09T04:42:08.936Z,17.33
2022-09-09T04:43:12.508Z,17.33
2022-09-09T04:44:08.938Z,17.33
2022-09-09T04:45:08.932Z,17.14
2022-09-09T04:46:09.006Z,17.16
2022-09-09T04:47:08.933Z,17.08
2022-09-09T04:48:08.935Z,17.14
2022-09-09T04:49:11.991Z,17.16
2022-09-09T04:50:08.941Z,17.18
2022-09-09T04:51:08.932Z,17.23
2022-09-09T04:52:08.932Z,17.19
2022-09-09T04:53:08.935Z,17.26
2022-09-09T04:54:08.934Z,17.26
2022-09-09T04:55:08.959Z,17.28
2022-09-09T04:56:08.933Z,17.34
2022-09-09T04:57:08.933Z,17.38
2022-09-09T04:58:08.934Z,17.36
2022-09-09T04:59:08.940Z,17.28
2022-09-09T05:00:08.937Z,17.31
2022-09-09T05:01:09.033Z,17.41
2022-09-09T05:02:08.975Z,17.34
2022-09-09T05:03:08.939Z,17.41
2022-09-09T05:04:08.935Z,17.44
2022-09-09T05:05:08.933Z,17.40
2022-09-09T05:06:08.933Z,17.41
2022-09-09T05:07:08.937Z,17.46
2022-09-09T05:08:08.934Z,17.43
2022-09-09T05:09:08.945Z,17.43
2022-09-09T05:10:08.935Z,17.51
2022-09-09T05:11:08.958Z,17.46
2022-09-09T05:12:08.938Z,17.54
2022-09-09T05:13:08.935Z,17.52
2022-09-09T05:14:08.938Z,17.54
2022-09-09T05:15:08.937Z,17.54
2022-09-09T05:16:09.020Z,17.54
2022-09-09T05:17:08.936Z,17.49
2022-09-09T05:18:08.941Z,17.49
2022-09-09T05:19:08.938Z,17.56
2022-09-09T05:20:10.709Z,17.52
2022-09-09T05:21:08.936Z,17.70
2022-09-09T05:22:08.943Z,17.66
2022-09-09T05:23:08.937Z,17.59
2022-09-09T05:24:09.267Z,17.72
2022-09-09T05:25:08.937Z,17.77
2022-09-09T05:26:08.939Z,17.79
2022-09-09T05:27:08.959Z,17.79
2022-09-09T05:28:08.940Z,17.78
2022-09-09T05:29:08.990Z,17.87
2022-09-09T05:30:08.941Z,17.81
2022-09-09T05:31:09.013Z,17.84
2022-09-09T05:32:11.478Z,17.78
2022-09-09T05:33:08.940Z,17.77
2022-09-09T05:34:08.943Z,17.81
2022-09-09T05:35:08.938Z,17.84
2022-09-09T05:36:08.943Z,17.97
2022-09-09T05:37:08.938Z,17.90
2022-09-09T05:38:08.942Z,18.00
2022-09-09T05:39:08.940Z,18.08
2022-09-09T05:40:08.988Z,18.11
2022-09-09T05:41:08.938Z,17.99
2022-09-09T05:42:08.939Z,17.96
2022-09-09T05:43:08.975Z,17.97
2022-09-09T05:44:08.941Z,17.99
2022-09-09T05:45:08.943Z,17.96
2022-09-09T05:46:09.006Z,18.05
2022-09-09T05:47:09.074Z,18.05
2022-09-09T05:48:08.948Z,18.05
2022-09-09T05:49:08.944Z,18.18
2022-09-09T05:50:08.946Z,18.15
2022-09-09T05:51:08.947Z,18.15
2022-09-09T05:52:08.947Z,18.25
2022-09-09T05:53:08.944Z,18.23
2022-09-09T05:54:08.946Z,18.25
2022-09-09T05:55:08.960Z,18.36
2022-09-09T05:56:08.947Z,18.35
2022-09-09T05:57:08.944Z,18.37
2022-09-09T05:58:08.946Z,18.32
2022-09-09T05:59:08.972Z,18.39
2022-09-09T06:00:08.944Z,18.42
2022-09-09T06:01:08.949Z,18.41
2022-09-09T06:02:09.155Z,18.44
2022-09-09T06:03:09.124Z,18.33
2022-09-09T06:04:08.948Z,18.32
2022-09-09T06:05:08.948Z,18.36
2022-09-09T06:06:08.946Z,18.32
2022-09-09T06:07:08.946Z,18.39
2022-09-09T06:08:08.949Z,18.42
2022-09-09T06:09:08.942Z,18.39
2022-09-09T06:10:08.949Z,18.48
2022-09-09T06:11:08.944Z,18.51
2022-09-09T06:12:08.947Z,18.39
2022-09-09T06:13:08.954Z,18.54
2022-09-09T06:14:08.950Z,18.55
2022-09-09T06:15:08.968Z,18.55
2022-09-09T06:16:09.012Z,18.63
2022-09-09T06:17:08.950Z,18.67
2022-09-09T06:18:08.948Z,18.76
2022-09-09T06:19:08.955Z,18.73
2022-09-09T06:20:08.950Z,18.72
2022-09-09T06:21:08.954Z,18.87
2022-09-09T06:22:08.953Z,18.81
2022-09-09T06:23:08.954Z,18.84
2022-09-09T06:24:08.950Z,18.99
2022-09-09T06:25:08.947Z,18.98
2022-09-09T06:26:08.950Z,18.94
2022-09-09T06:27:08.950Z,18.94
2022-09-09T06:28:08.956Z,19.11
2022-09-09T06:29:08.951Z,18.99
2022-09-09T06:30:08.952Z,19.10
2022-09-09T06:31:09.055Z,19.10
2022-09-09T06:32:08.956Z,19.14
2022-09-09T06:33:08.951Z,19.21
2022-09-09T06:34:08.958Z,19.21
2022-09-09T06:35:08.956Z,19.26
2022-09-09T06:36:08.957Z,19.46
2022-09-09T06:37:08.953Z,19.56
2022-09-09T06:38:08.952Z,19.62
2022-09-09T06:39:14.238Z,19.66
2022-09-09T06:40:09.062Z,19.81
2022-09-09T06:41:08.956Z,19.92
2022-09-09T06:42:08.960Z,20.08
2022-09-09T06:43:08.956Z,20.36
2022-09-09T06:44:08.962Z,20.61
2022-09-09T06:45:08.959Z,21.16
2022-09-09T06:46:09.102Z,21.31
2022-09-09T06:47:08.982Z,21.10
2022-09-09T06:48:08.957Z,20.88
2022-09-09T06:49:08.959Z,21.12
2022-09-09T06:50:09.321Z,21.96
2022-09-09T06:51:08.963Z,22.85
2022-09-09T06:52:10.401Z,23.65
2022-09-09T06:53:08.964Z,24.37
2022-09-09T06:54:08.962Z,24.95
2022-09-09T06:55:08.963Z,25.51
2022-09-09T06:56:08.964Z,25.65
2022-09-09T06:57:33.570Z,25.91
2022-09-09T06:58:08.966Z,26.36
2022-09-09T06:59:08.987Z,26.62
2022-09-09T07:00:08.970Z,26.80
2022-09-09T07:01:09.089Z,27.12
2022-09-09T07:02:09.015Z,27.29
2022-09-09T07:03:09.006Z,27.47
2022-09-09T07:04:08.971Z,27.72
2022-09-09T07:05:08.969Z,27.90
2022-09-09T07:06:08.973Z,27.85
2022-09-09T07:07:08.976Z,27.81
2022-09-09T07:08:08.976Z,27.32
2022-09-09T07:09:08.975Z,27.31
2022-09-09T07:10:08.985Z,27.27
2022-09-09T07:11:12.220Z,27.03
2022-09-09T07:12:08.981Z,27.36
2022-09-09T07:13:08.977Z,27.82
2022-09-09T07:14:08.986Z,28.14
2022-09-09T07:15:08.984Z,28.59
2022-09-09T07:16:09.064Z,28.89
2022-09-09T07:17:08.986Z,28.88
2022-09-09T07:18:08.987Z,29.06
2022-09-09T07:19:09.009Z,29.12
2022-09-09T07:20:08.990Z,29.41
2022-09-09T07:21:08.988Z,29.55
2022-09-09T07:22:08.997Z,29.74
2022-09-09T07:23:08.996Z,29.85
2022-09-09T07:24:08.994Z,29.80
2022-09-09T07:25:08.996Z,29.37
2022-09-09T07:26:09.000Z,29.31
2022-09-09T07:27:09.007Z,29.31
2022-09-09T07:28:09.001Z,28.89
2022-09-09T07:29:09.005Z,28.58
2022-09-09T07:30:09.002Z,28.51
2022-09-09T07:31:09.037Z,28.43
2022-09-09T07:32:09.012Z,28.90
2022-09-09T07:33:09.014Z,29.06
2022-09-09T07:34:09.010Z,29.27
2022-09-09T07:35:09.041Z,29.52
2022-09-09T07:36:09.013Z,29.94
2022-09-09T07:37:09.020Z,30.43
2022-09-09T07:38:09.019Z,30.80
2022-09-09T07:39:09.027Z,30.95
2022-09-09T07:40:09.069Z,30.83
2022-09-09T07:41:09.028Z,30.55
2022-09-09T07:42:09.032Z,30.54
2022-09-09T07:43:09.035Z,30.65
2022-09-09T07:44:09.037Z,30.55
2022-09-09T07:45:09.037Z,30.46
2022-09-09T07:46:09.106Z,30.35
2022-09-09T07:47:09.043Z,30.23
2022-09-09T07:48:09.048Z,30.07
2022-09-09T07:49:09.060Z,29.89
2022-09-09T07:50:09.054Z,30.20
2022-09-09T07:51:09.069Z,30.47
2022-09-09T07:52:09.075Z,30.70
2022-09-09T07:53:09.064Z,30.77
2022-09-09T07:54:09.065Z,30.55
2022-09-09T07:55:09.076Z,30.51
2022-09-09T07:56:09.072Z,30.43
2022-09-09T07:57:09.098Z,30.39
2022-09-09T07:58:09.172Z,30.69
2022-09-09T07:59:09.082Z,30.72
2022-09-09T08:00:09.086Z,30.69
2022-09-09T08:01:09.084Z,30.64
2022-09-09T08:02:09.092Z,30.37
2022-09-09T08:03:09.129Z,30.22
2022-09-09T08:04:09.092Z,30.20
2022-09-09T08:05:09.100Z,30.02
2022-09-09T08:06:09.101Z,29.80
2022-09-09T08:07:09.130Z,29.53
2022-09-09T08:08:09.109Z,29.18
2022-09-09T08:09:09.112Z,29.09
2022-09-09T08:10:09.123Z,29.02
2022-09-09T08:11:09.124Z,29.19
2022-09-09T08:12:09.124Z,29.19
2022-09-09T08:13:18.016Z,29.06
2022-09-09T08:14:09.125Z,28.66
2022-09-09T08:15:09.140Z,28.62
2022-09-09T08:16:09.180Z,28.76
2022-09-09T08:17:09.137Z,29.05
2022-09-09T08:18:09.143Z,29.23
2022-09-09T08:19:09.151Z,29.21
2022-09-09T08:20:09.151Z,29.30
2022-09-09T08:21:09.152Z,29.39
2022-09-09T08:22:09.155Z,29.67
2022-09-09T08:23:09.208Z,29.87
2022-09-09T08:24:09.162Z,29.89
2022-09-09T08:25:09.178Z,29.65
2022-09-09T08:26:09.170Z,29.65
2022-09-09T08:27:09.178Z,29.42
2022-09-09T08:28:09.179Z,29.41
2022-09-09T08:29:09.182Z,29.15
2022-09-09T08:30:09.186Z,28.92
2022-09-09T08:31:09.329Z,28.18
2022-09-09T08:32:09.196Z,27.97
2022-09-09T08:33:09.203Z,28.39
2022-09-09T08:34:09.208Z,28.89
2022-09-09T08:35:09.211Z,29.02
2022-09-09T08:36:09.213Z,29.30
2022-09-09T08:37:09.222Z,29.61
2022-09-09T08:38:11.039Z,29.34
2022-09-09T08:39:09.402Z,29.31
2022-09-09T08:40:09.301Z,29.16
2022-09-09T08:41:09.237Z,29.06
2022-09-09T08:42:09.243Z,28.68
2022-09-09T08:43:09.249Z,28.19
2022-09-09T08:44:09.256Z,27.84
2022-09-09T08:45:09.260Z,27.57
2022-09-09T08:46:09.297Z,27.19
2022-09-09T08:47:09.271Z,27.02
2022-09-09T08:48:09.271Z,26.92
2022-09-09T08:49:09.280Z,26.89
2022-09-09T08:50:09.283Z,26.89
2022-09-09T08:51:09.291Z,26.76
2022-09-09T08:52:09.291Z,26.69
2022-09-09T08:53:09.323Z,26.72
2022-09-09T08:54:09.306Z,26.63
2022-09-09T08:55:09.341Z,26.52
2022-09-09T08:56:09.320Z,26.54
2022-09-09T08:57:09.314Z,26.40
2022-09-09T08:58:09.322Z,26.43
2022-09-09T08:59:09.331Z,26.37
2022-09-09T09:00:09.332Z,26.43
2022-09-09T09:01:09.340Z,26.36
2022-09-09T09:02:13.403Z,26.15
2022-09-09T09:03:09.349Z,25.94
2022-09-09T09:04:09.687Z,25.98
2022-09-09T09:05:09.449Z,25.92
2022-09-09T09:06:09.359Z,25.83
2022-09-09T09:07:09.363Z,25.87
2022-09-09T09:08:09.369Z,25.94
2022-09-09T09:09:09.372Z,25.83
2022-09-09T09:10:30.410Z,25.82
2022-09-09T09:11:09.406Z,25.79
2022-09-09T09:12:09.382Z,25.77
2022-09-09T09:13:09.391Z,25.61
2022-09-09T09:14:09.397Z,25.70
2022-09-09T09:15:09.400Z,25.85
2022-09-09T09:16:09.463Z,25.92
2022-09-09T09:17:09.409Z,25.92
2022-09-09T09:18:09.410Z,26.09
2022-09-09T09:19:09.412Z,26.21
2022-09-09T09:20:09.414Z,26.63
2022-09-09T09:21:09.422Z,27.07
2022-09-09T09:22:09.434Z,27.77
2022-09-09T09:23:09.432Z,28.59
2022-09-09T09:24:09.434Z,29.31
2022-09-09T09:25:09.441Z,29.89
2022-09-09T09:26:09.458Z,30.45
2022-09-09T09:27:09.513Z,31.02
2022-09-09T09:28:09.455Z,30.94
2022-09-09T09:29:09.469Z,30.64
2022-09-09T09:30:25.340Z,30.88
2022-09-09T09:31:09.503Z,31.12
2022-09-09T09:32:09.483Z,31.14
2022-09-09T09:33:09.488Z,31.58
2022-09-09T09:34:09.497Z,32.25
2022-09-09T09:35:09.506Z,32.51
2022-09-09T09:36:09.520Z,33.04
2022-09-09T09:37:09.520Z,33.28
2022-09-09T09:40:09.546Z,32.04
2022-09-09T09:41:09.559Z,32.00
2022-09-09T09:42:09.562Z,31.68
2022-09-09T09:43:09.627Z,31.73
2022-09-09T09:44:09.585Z,31.78
2022-09-09T09:45:09.591Z,31.63
2022-09-09T09:46:18.005Z,31.63
2022-09-09T09:47:09.612Z,32.10
2022-09-09T09:48:13.948Z,32.59
2022-09-09T09:49:09.630Z,32.89
2022-09-09T09:50:09.643Z,32.65
2022-09-09T09:51:09.650Z,32.72
2022-09-09T09:52:09.663Z,33.09
2022-09-09T09:53:09.677Z,33.31
2022-09-09T09:54:09.688Z,33.49
2022-09-09T09:55:09.699Z,33.69
2022-09-09T09:56:09.709Z,33.94
2022-09-09T09:57:09.782Z,34.46
2022-09-09T09:58:09.731Z,34.84
2022-09-09T09:59:17.928Z,35.02
2022-09-09T10:00:09.818Z,35.31
2022-09-09T10:01:09.819Z,35.80
2022-09-09T10:02:09.782Z,35.92
2022-09-09T10:03:09.802Z,35.60
2022-09-09T10:04:09.807Z,35.90
2022-09-09T10:05:09.869Z,36.12
2022-09-09T10:06:09.840Z,36.43
2022-09-09T10:07:09.851Z,36.78
2022-09-09T10:08:09.860Z,37.00
2022-09-09T10:09:09.884Z,37.05
2022-09-09T10:10:09.897Z,36.98
2022-09-09T10:11:09.912Z,36.95
2022-09-09T10:12:09.921Z,36.81
2022-09-09T10:13:09.948Z,36.71
2022-09-09T10:14:09.955Z,36.83
2022-09-09T10:15:09.992Z,36.81
2022-09-09T10:16:10.019Z,36.54
2022-09-09T10:17:09.998Z,36.17
2022-09-09T10:18:10.018Z,35.55
2022-09-09T10:19:10.036Z,35.15
2022-09-09T10:20:10.049Z,34.44
2022-09-09T10:21:10.070Z,34.64
2022-09-09T10:22:10.081Z,34.87
2022-09-09T10:23:10.101Z,34.94
2022-09-09T10:24:10.145Z,35.16
2022-09-09T10:25:10.132Z,35.09
2022-09-09T10:26:10.149Z,34.91
2022-09-09T10:27:10.174Z,34.58
2022-09-09T10:28:10.181Z,34.39
2022-09-09T10:29:10.201Z,34.66
2022-09-09T10:30:10.216Z,34.13
2022-09-09T10:31:10.311Z,34.47
2022-09-09T10:32:10.257Z,34.85
2022-09-09T10:34:10.283Z,35.28
2022-09-09T10:35:10.301Z,35.87
2022-09-09T10:36:10.316Z,36.19
2022-09-09T10:37:10.340Z,36.17
2022-09-09T10:38:10.356Z,35.89
2022-09-09T10:39:10.366Z,35.62
2022-09-09T10:40:10.476Z,35.33
2022-09-09T10:41:10.403Z,35.52
2022-09-09T10:42:10.422Z,35.55
2022-09-09T10:43:10.437Z,35.68
2022-09-09T10:44:10.453Z,35.89
2022-09-09T10:45:10.471Z,35.99
2022-09-09T10:46:10.563Z,35.28
2022-09-09T10:47:10.525Z,34.35
2022-09-09T10:48:10.519Z,33.53
2022-09-09T10:49:10.537Z,33.28
2022-09-09T10:50:10.640Z,32.77
2022-09-09T10:51:10.574Z,32.62
2022-09-09T10:52:10.586Z,32.35
2022-09-09T10:53:10.602Z,32.18
2022-09-09T10:54:10.624Z,31.80
2022-09-09T10:55:10.637Z,31.65
2022-09-09T10:56:10.652Z,31.47
2022-09-09T10:57:10.671Z,31.32
2022-09-09T10:58:10.682Z,31.10
2022-09-09T10:59:10.702Z,30.91
2022-09-09T11:00:10.713Z,30.80
2022-09-09T11:01:10.803Z,30.80
2022-09-09T11:02:10.746Z,30.99
2022-09-09T11:03:10.776Z,30.99
2022-09-09T11:04:10.834Z,31.12
2022-09-09T11:05:10.786Z,31.54
2022-09-09T11:06:10.890Z,31.86
2022-09-09T11:07:12.051Z,32.85
2022-09-09T11:08:10.894Z,33.15
2022-09-09T11:09:10.843Z,33.54
2022-09-09T11:10:10.857Z,33.18
2022-09-09T11:11:10.870Z,32.92
2022-09-09T11:12:10.885Z,33.29
2022-09-09T11:13:10.903Z,33.97
2022-09-09T11:14:10.912Z,34.72
2022-09-09T11:15:10.946Z,35.19
2022-09-09T11:16:10.941Z,35.53
2022-09-09T11:17:10.958Z,35.80
2022-09-09T11:18:10.969Z,36.25
2022-09-09T11:19:11.000Z,36.72
2022-09-09T11:20:11.000Z,37.09
2022-09-09T11:21:11.014Z,37.32
2022-09-09T11:22:11.026Z,35.92
2022-09-09T11:23:11.043Z,35.09
2022-09-09T11:24:11.057Z,35.33
2022-09-09T11:25:11.106Z,35.45
2022-09-09T11:26:11.087Z,36.09
2022-09-09T11:27:11.129Z,36.64
2022-09-09T11:28:11.107Z,36.44
2022-09-09T11:29:11.127Z,36.50
2022-09-09T11:30:11.137Z,36.16
2022-09-09T11:31:11.195Z,36.32
2022-09-09T11:32:11.167Z,36.38
2022-09-09T11:33:11.183Z,36.90
2022-09-09T11:34:11.195Z,37.13
2022-09-09T11:35:11.233Z,36.62
2022-09-09T11:36:11.225Z,36.93
2022-09-09T11:37:11.233Z,36.73
2022-09-09T11:38:11.253Z,36.54
2022-09-09T11:39:11.267Z,36.64
2022-09-09T11:40:11.344Z,37.17
2022-09-09T11:41:11.297Z,37.57
2022-09-09T11:42:11.314Z,37.81
2022-09-09T11:43:11.320Z,37.89
2022-09-09T11:44:11.342Z,38.28
2022-09-09T11:45:11.347Z,37.78
2022-09-09T11:46:11.403Z,37.55
2022-09-09T11:47:11.377Z,36.88
2022-09-09T11:48:11.393Z,36.99
2022-09-09T11:49:11.406Z,37.09
2022-09-09T11:50:11.417Z,37.46
2022-09-09T11:51:16.664Z,38.09
2022-09-09T11:52:11.447Z,38.26
2022-09-09T11:53:11.461Z,38.11
2022-09-09T11:54:11.497Z,38.31
2022-09-09T11:55:11.492Z,38.35
2022-09-09T11:56:11.500Z,37.96
2022-09-09T11:57:11.514Z,37.78
2022-09-09T11:58:11.528Z,37.37
2022-09-09T11:59:11.538Z,36.29
2022-09-09T12:00:11.553Z,36.62
2022-09-09T12:01:11.580Z,36.64
2022-09-09T12:02:11.605Z,36.78
2022-09-09T12:03:11.595Z,37.21
2022-09-09T12:04:11.609Z,37.32
2022-09-09T12:05:11.691Z,36.95
2022-09-09T12:06:11.631Z,36.60
2022-09-09T12:07:11.667Z,36.08
2022-09-09T12:08:11.661Z,35.58
2022-09-09T12:09:11.670Z,34.87
2022-09-09T12:10:11.687Z,34.08
2022-09-09T12:11:11.696Z,33.11
2022-09-09T12:12:11.709Z,32.62
2022-09-09T12:13:11.716Z,32.25
2022-09-09T12:14:11.730Z,32.15
2022-09-09T12:15:11.750Z,31.78
2022-09-09T12:16:11.787Z,31.58
2022-09-09T12:17:11.767Z,31.47
2022-09-09T12:18:11.778Z,31.19
2022-09-09T12:19:11.793Z,31.10
2022-09-09T12:20:11.801Z,30.84
2022-09-09T12:21:11.814Z,30.65
2022-09-09T12:22:11.822Z,30.32
2022-09-09T12:23:11.859Z,30.32
2022-09-09T12:24:11.845Z,30.23
2022-09-09T12:25:11.856Z,30.26
2022-09-09T12:26:11.864Z,30.32
2022-09-09T12:27:11.875Z,30.17
2022-09-09T12:28:11.885Z,30.20
2022-09-09T12:29:11.894Z,30.32
2022-09-09T12:30:11.910Z,30.38
2022-09-09T12:31:11.956Z,30.51
2022-09-09T12:32:12.427Z,30.42
2022-09-09T12:33:11.933Z,30.53
2022-09-09T12:34:11.944Z,30.58
2022-09-09T12:35:11.951Z,30.72
2022-09-09T12:36:11.963Z,30.65
2022-09-09T12:37:11.974Z,30.72
2022-09-09T12:38:11.979Z,30.65
2022-09-09T12:39:12.022Z,30.61
2022-09-09T12:40:12.077Z,30.54
2022-09-09T12:41:12.013Z,30.47
2022-09-09T12:42:12.015Z,30.35
2022-09-09T12:43:12.029Z,30.29
2022-09-09T12:44:12.038Z,29.92
2022-09-09T12:45:12.045Z,29.70
2022-09-09T12:46:12.112Z,29.55
2022-09-09T12:47:12.060Z,29.42
2022-09-09T12:48:12.068Z,29.43
2022-09-09T12:49:12.077Z,29.41
2022-09-09T12:50:12.086Z,29.42
2022-09-09T12:51:12.099Z,29.23
2022-09-09T12:52:12.107Z,28.98
2022-09-09T12:53:12.110Z,29.00
2022-09-09T12:54:12.125Z,29.06
2022-09-09T12:55:12.150Z,29.15
2022-09-09T12:56:12.143Z,29.11